Stacja Pogody
Warszawa Praga-Północ

Szerokość 52°15'43"N Długość 21°01'22"E Wysokość 110m n.p.m.


292 dzień roku.   Do końca pozostalo 73 dni.   Od wczoraj ubyło 4 min. i 4 sek. dnia.
Wschód Słońca 07:07 Górowanie Słońca 12:20 Zachód Słońca 17:34 waga
Data juliańska 2458046.404 Odległość Słońca 148912493 km Średn. kątowa Słońca 0,321°
Wschód Księżyca 06:18 Zachód Księżyca 17:52 Wiek Księżyca 30 dni Moon
Widoczność Księżyca 0,00% Odległość Księżyca 394198 km Średn. kątowa Księżyca 0,303°
Dzień krótszy od najdłuższego o: 06:21 Długość dnia 10:26 Imieniny Ziemowita, Jana, Pawła



  Aktualizacja: 19-10-2017 21:41:00
TEMPERATURA
Aktualnie: 12.5°C →
Temperatura odczuwalna:13.4°C
Punkt rosy9.1°C
WIATR
Średnia prędkość: 0.0km/h →
Prędkość w podmuchach:0.0km/h
Przepływ w ciągu doby:9.6km
Kierunek wiatru:270°
CIŚNIENIE
Względne:1018.5hPa
Trend ciśnienia:powolny wzrost
WILGOTNOŚĆ
Wilgotność względna: 80% ↑
Podstawa chmur1640m
DESZCZ
W ostatniej godzinie: 0.0mm
Dzisiaj:0.0mm
W tym miesiącu:42.9mm
METAR
EPWA 191900Z 08006KT 050V120 9999 BKN024 13/10 Q1018 NOSIG
Ostrzeżenia burzowe
Prognoza 12-to godzinna (prawdopodobieństwo 75%):   Dobra pogoda prognoza





a  a a